sensor_id;sensor_type;location;lat;lon;timestamp;pressure;altitude;pressure_sealevel;temperature;humidity
70445;BME280;57902;49.638;11.070;2023-05-19T00:31:19;98898.53;;;7.68;84.24
70445;BME280;57902;49.638;11.070;2023-05-19T00:33:53;98907.00;;;7.73;85.30
70445;BME280;57902;49.638;11.070;2023-05-19T00:39:44;98898.38;;;7.82;84.98
70445;BME280;57902;49.638;11.070;2023-05-19T00:42:21;98898.41;;;7.80;85.91
70445;BME280;57902;49.638;11.070;2023-05-19T00:44:57;98896.66;;;7.84;86.84
70445;BME280;57902;49.638;11.070;2023-05-19T00:47:25;98888.06;;;7.88;87.33
70445;BME280;57902;49.638;11.070;2023-05-19T00:49:51;98889.75;;;7.91;88.61
70445;BME280;57902;49.638;11.070;2023-05-19T00:52:18;98886.34;;;7.92;88.41
70445;BME280;57902;49.638;11.070;2023-05-19T00:54:45;98886.31;;;7.95;88.69
70445;BME280;57902;49.638;11.070;2023-05-19T00:57:13;98882.84;;;7.99;89.44
70445;BME280;57902;49.638;11.070;2023-05-19T00:59:40;98876.81;;;8.00;90.12
70445;BME280;57902;49.638;11.070;2023-05-19T01:02:09;98881.06;;;8.05;90.20
70445;BME280;57902;49.638;11.070;2023-05-19T01:04:41;98880.97;;;8.13;88.59
70445;BME280;57902;49.638;11.070;2023-05-19T01:07:11;98878.38;;;8.15;89.97
70445;BME280;57902;49.638;11.070;2023-05-19T01:09:38;98872.38;;;8.17;89.18
70445;BME280;57902;49.638;11.070;2023-05-19T01:12:06;98874.09;;;8.18;87.28
70445;BME280;57902;49.638;11.070;2023-05-19T01:14:33;98874.03;;;8.21;88.29
70445;BME280;57902;49.638;11.070;2023-05-19T01:19:54;98872.28;;;8.28;87.27
70445;BME280;57902;49.638;11.070;2023-05-19T01:22:39;98871.34;;;8.32;87.41
70445;BME280;57902;49.638;11.070;2023-05-19T01:28:25;98868.78;;;8.32;87.78
70445;BME280;57902;49.638;11.070;2023-05-19T01:30:58;98870.59;;;8.26;87.77
70445;BME280;57902;49.638;11.070;2023-05-19T01:33:28;98868.09;;;8.18;88.15
70445;BME280;57902;49.638;11.070;2023-05-19T01:35:56;98866.41;;;8.15;88.60
70445;BME280;57902;49.638;11.070;2023-05-19T01:38:24;98872.47;;;8.08;88.60
70445;BME280;57902;49.638;11.070;2023-05-19T01:40:55;98869.00;;;8.12;88.94
70445;BME280;57902;49.638;11.070;2023-05-19T01:43:24;98872.41;;;8.14;87.60
70445;BME280;57902;49.638;11.070;2023-05-19T01:45:52;98867.28;;;8.13;88.50
70445;BME280;57902;49.638;11.070;2023-05-19T01:59:10;98859.72;;;8.02;90.41
70445;BME280;57902;49.638;11.070;2023-05-19T02:01:55;98857.19;;;7.97;89.42
70445;BME280;57902;49.638;11.070;2023-05-19T02:34:03;98856.22;;;8.04;88.80
70445;BME280;57902;49.638;11.070;2023-05-19T02:36:51;98851.94;;;8.08;89.62
70445;BME280;57902;49.638;11.070;2023-05-19T02:40:30;98851.94;;;8.08;88.88
70445;BME280;57902;49.638;11.070;2023-05-19T02:46:22;98852.81;;;8.05;89.61
70445;BME280;57902;49.638;11.070;2023-05-19T02:49:06;98843.38;;;8.08;89.74
70445;BME280;57902;49.638;11.070;2023-05-19T02:51:33;98839.06;;;8.11;89.43
70445;BME280;57902;49.638;11.070;2023-05-19T02:53:59;98836.41;;;8.17;89.83
70445;BME280;57902;49.638;11.070;2023-05-19T03:00:23;98824.38;;;8.22;90.00
70445;BME280;57902;49.638;11.070;2023-05-19T03:03:09;98830.31;;;8.28;89.85
70445;BME280;57902;49.638;11.070;2023-05-19T03:05:36;98822.56;;;8.31;90.91
70445;BME280;57902;49.638;11.070;2023-05-19T03:08:03;98825.94;;;8.36;90.72
70445;BME280;57902;49.638;11.070;2023-05-19T03:10:37;98831.13;;;8.33;91.13
70445;BME280;57902;49.638;11.070;2023-05-19T03:13:04;98824.25;;;8.33;90.32
70445;BME280;57902;49.638;11.070;2023-05-19T03:15:31;98831.03;;;8.40;90.62
70445;BME280;57902;49.638;11.070;2023-05-19T03:18:00;98831.00;;;8.45;90.53
70445;BME280;57902;49.638;11.070;2023-05-19T03:20:37;98830.13;;;8.46;88.75
70445;BME280;57902;49.638;11.070;2023-05-19T03:23:11;98828.34;;;8.51;90.20
70445;BME280;57902;49.638;11.070;2023-05-19T03:25:45;98834.28;;;8.56;89.76
70445;BME280;57902;49.638;11.070;2023-05-19T03:28:58;98839.31;;;8.66;89.12
70445;BME280;57902;49.638;11.070;2023-05-19T03:35:58;98840.84;;;8.79;88.37
70445;BME280;57902;49.638;11.070;2023-05-19T03:57:50;98841.28;;;9.10;83.73
70445;BME280;57902;49.638;11.070;2023-05-19T04:03:09;98844.63;;;9.14;83.00
70445;BME280;57902;49.638;11.070;2023-05-19T04:05:53;98847.97;;;9.21;85.54
70445;BME280;57902;49.638;11.070;2023-05-19T04:08:22;98853.00;;;9.28;86.56
70445;BME280;57902;49.638;11.070;2023-05-19T04:11:28;98851.28;;;9.29;83.15
70445;BME280;57902;49.638;11.070;2023-05-19T04:45:17;98856.94;;;10.01;75.79
70445;BME280;57902;49.638;11.070;2023-05-19T04:47:55;98850.00;;;10.06;74.38
70445;BME280;57902;49.638;11.070;2023-05-19T04:50:28;98853.28;;;10.14;74.66
70445;BME280;57902;49.638;11.070;2023-05-19T04:53:10;98850.50;;;10.25;74.21
70445;BME280;57902;49.638;11.070;2023-05-19T04:55:37;98846.78;;;10.40;72.37
70445;BME280;57902;49.638;11.070;2023-05-19T04:58:09;98850.84;;;10.52;73.07
70445;BME280;57902;49.638;11.070;2023-05-19T05:00:38;98843.56;;;10.73;72.57
70445;BME280;57902;49.638;11.070;2023-05-19T05:03:07;98850.69;;;11.00;70.38
70445;BME280;57902;49.638;11.070;2023-05-19T05:05:37;98855.16;;;11.31;69.46
70445;BME280;57902;49.638;11.070;2023-05-19T05:08:07;98842.63;;;11.52;67.61
70445;BME280;57902;49.638;11.070;2023-05-19T05:10:49;98853.50;;;11.65;65.01
70445;BME280;57902;49.638;11.070;2023-05-19T05:13:39;98855.09;;;11.70;64.97
70445;BME280;57902;49.638;11.070;2023-05-19T05:16:16;98856.91;;;11.65;65.95
70445;BME280;57902;49.638;11.070;2023-05-19T05:18:48;98849.00;;;11.71;66.94
70445;BME280;57902;49.638;11.070;2023-05-19T05:21:16;98850.56;;;11.79;65.11
70445;BME280;57902;49.638;11.070;2023-05-19T05:23:45;98855.59;;;11.83;64.90
70445;BME280;57902;49.638;11.070;2023-05-19T05:31:55;98846.97;;;11.84;63.60
70445;BME280;57902;49.638;11.070;2023-05-19T05:34:39;98842.84;;;11.77;64.59
70445;BME280;57902;49.638;11.070;2023-05-19T05:37:10;98838.47;;;11.81;64.32
70445;BME280;57902;49.638;11.070;2023-05-19T05:39:47;98837.53;;;11.83;64.31
70445;BME280;57902;49.638;11.070;2023-05-19T05:42:14;98838.50;;;11.79;64.16
70445;BME280;57902;49.638;11.070;2023-05-19T05:44:58;98840.94;;;11.85;63.83
70445;BME280;57902;49.638;11.070;2023-05-19T05:47:28;98835.72;;;11.87;63.25
70445;BME280;57902;49.638;11.070;2023-05-19T05:50:04;98835.75;;;11.85;64.65
70445;BME280;57902;49.638;11.070;2023-05-19T05:52:42;98842.59;;;11.88;65.06
70445;BME280;57902;49.638;11.070;2023-05-19T05:55:23;98845.84;;;11.96;64.71
70445;BME280;57902;49.638;11.070;2023-05-19T05:57:55;98843.16;;;11.99;64.64
70445;BME280;57902;49.638;11.070;2023-05-19T06:00:33;98851.53;;;12.09;65.38
70445;BME280;57902;49.638;11.070;2023-05-19T06:03:05;98848.13;;;12.08;66.47
70445;BME280;57902;49.638;11.070;2023-05-19T06:05:34;98851.16;;;12.23;65.79
70445;BME280;57902;49.638;11.070;2023-05-19T06:08:04;98840.63;;;12.31;64.75
70445;BME280;57902;49.638;11.070;2023-05-19T06:10:31;98837.88;;;12.37;64.72
70445;BME280;57902;49.638;11.070;2023-05-19T06:13:00;98847.28;;;12.39;64.46
70445;BME280;57902;49.638;11.070;2023-05-19T06:15:27;98839.34;;;12.46;63.33
70445;BME280;57902;49.638;11.070;2023-05-19T06:17:53;98843.53;;;12.50;62.80
70445;BME280;57902;49.638;11.070;2023-05-19T06:20:20;98841.94;;;12.46;60.99
70445;BME280;57902;49.638;11.070;2023-05-19T06:22:59;98844.97;;;12.60;61.15
70445;BME280;57902;49.638;11.070;2023-05-19T06:28:27;98845.44;;;12.74;61.45
70445;BME280;57902;49.638;11.070;2023-05-19T06:31:08;98843.38;;;12.84;61.72
70445;BME280;57902;49.638;11.070;2023-05-19T06:33:48;98844.34;;;13.10;62.55
70445;BME280;57902;49.638;11.070;2023-05-19T06:36:17;98844.91;;;13.20;61.00
70445;BME280;57902;49.638;11.070;2023-05-19T06:38:51;98851.81;;;13.47;60.81
70445;BME280;57902;49.638;11.070;2023-05-19T06:41:30;98847.75;;;13.67;61.21
70445;BME280;57902;49.638;11.070;2023-05-19T06:43:57;98851.78;;;13.76;59.74
70445;BME280;57902;49.638;11.070;2023-05-19T06:46:26;98848.59;;;13.93;59.95
70445;BME280;57902;49.638;11.070;2023-05-19T06:48:53;98853.47;;;14.02;58.15
70445;BME280;57902;49.638;11.070;2023-05-19T06:51:20;98852.06;;;13.93;56.46
70445;BME280;57902;49.638;11.070;2023-05-19T06:54:01;98841.91;;;14.12;56.53
70445;BME280;57902;49.638;11.070;2023-05-19T06:56:31;98845.19;;;13.92;57.27
70445;BME280;57902;49.638;11.070;2023-05-19T06:59:08;98848.97;;;14.07;56.88
70445;BME280;57902;49.638;11.070;2023-05-19T07:01:40;98845.50;;;14.08;58.14
70445;BME280;57902;49.638;11.070;2023-05-19T07:04:07;98849.88;;;14.06;57.91
70445;BME280;57902;49.638;11.070;2023-05-19T07:06:37;98838.44;;;14.12;57.26
70445;BME280;57902;49.638;11.070;2023-05-19T07:09:05;98844.09;;;14.23;56.10
70445;BME280;57902;49.638;11.070;2023-05-19T07:11:49;98838.09;;;14.23;55.45
70445;BME280;57902;49.638;11.070;2023-05-19T07:14:18;98837.34;;;13.94;57.67
70445;BME280;57902;49.638;11.070;2023-05-19T07:16:49;98834.69;;;14.21;56.24
70445;BME280;57902;49.638;11.070;2023-05-19T07:19:19;98837.44;;;14.16;55.74
70445;BME280;57902;49.638;11.070;2023-05-19T07:21:46;98839.03;;;14.20;55.52
70445;BME280;57902;49.638;11.070;2023-05-19T07:24:15;98823.31;;;14.25;56.69
70445;BME280;57902;49.638;11.070;2023-05-19T07:26:42;98822.78;;;14.64;56.33
70445;BME280;57902;49.638;11.070;2023-05-19T07:29:09;98814.97;;;14.87;55.04
70445;BME280;57902;49.638;11.070;2023-05-19T07:31:47;98828.97;;;15.28;52.57
70445;BME280;57902;49.638;11.070;2023-05-19T07:34:14;98818.41;;;15.53;53.30
70445;BME280;57902;49.638;11.070;2023-05-19T07:36:44;98808.59;;;15.82;51.89
70445;BME280;57902;49.638;11.070;2023-05-19T07:39:17;98810.28;;;16.03;52.23
70445;BME280;57902;49.638;11.070;2023-05-19T07:41:46;98815.97;;;16.12;51.52
70445;BME280;57902;49.638;11.070;2023-05-19T07:44:18;98805.06;;;16.43;49.71
70445;BME280;57902;49.638;11.070;2023-05-19T07:46:53;98806.88;;;16.98;49.74
70445;BME280;57902;49.638;11.070;2023-05-19T07:49:39;98810.78;;;17.43;47.26
70445;BME280;57902;49.638;11.070;2023-05-19T07:52:33;98815.16;;;17.78;46.04
70445;BME280;57902;49.638;11.070;2023-05-19T07:55:37;98811.25;;;18.38;44.33
70445;BME280;57902;49.638;11.070;2023-05-19T07:58:39;98810.69;;;18.15;45.01
70445;BME280;57902;49.638;11.070;2023-05-19T08:01:29;98799.09;;;18.36;46.21
70445;BME280;57902;49.638;11.070;2023-05-19T08:04:35;98803.22;;;18.90;44.23
70445;BME280;57902;49.638;11.070;2023-05-19T08:07:34;98799.38;;;18.48;44.45
70445;BME280;57902;49.638;11.070;2023-05-19T08:10:16;98796.47;;;17.52;45.84
70445;BME280;57902;49.638;11.070;2023-05-19T08:13:16;98792.16;;;16.78;48.00
70445;BME280;57902;49.638;11.070;2023-05-19T08:16:19;98791.78;;;16.87;48.53
70445;BME280;57902;49.638;11.070;2023-05-19T08:19:17;98798.03;;;16.64;48.84
70445;BME280;57902;49.638;11.070;2023-05-19T08:22:04;98789.50;;;16.60;48.84
70445;BME280;57902;49.638;11.070;2023-05-19T08:24:43;98790.00;;;16.50;50.87
70445;BME280;57902;49.638;11.070;2023-05-19T08:27:27;98791.91;;;16.27;48.91
70445;BME280;57902;49.638;11.070;2023-05-19T08:30:30;98793.69;;;16.25;48.91
70445;BME280;57902;49.638;11.070;2023-05-19T08:33:30;98793.34;;;16.14;48.93
70445;BME280;57902;49.638;11.070;2023-05-19T08:36:46;98790.88;;;16.10;50.64
70445;BME280;57902;49.638;11.070;2023-05-19T08:39:50;98785.06;;;16.24;48.74
70445;BME280;57902;49.638;11.070;2023-05-19T08:42:28;98780.66;;;16.06;49.71
70445;BME280;57902;49.638;11.070;2023-05-19T08:45:23;98770.41;;;16.03;51.27
70445;BME280;57902;49.638;11.070;2023-05-19T08:47:59;98771.78;;;15.91;53.60
70445;BME280;57902;49.638;11.070;2023-05-19T08:53:52;98765.84;;;16.08;50.09
70445;BME280;57902;49.638;11.070;2023-05-19T08:56:35;98766.47;;;16.13;49.70
70445;BME280;57902;49.638;11.070;2023-05-19T08:59:23;98764.16;;;16.07;49.18
70445;BME280;57902;49.638;11.070;2023-05-19T09:02:00;98759.00;;;15.86;50.65
70445;BME280;57902;49.638;11.070;2023-05-19T09:04:47;98763.72;;;15.77;50.13
70445;BME280;57902;49.638;11.070;2023-05-19T09:07:23;98765.75;;;15.70;50.41
70445;BME280;57902;49.638;11.070;2023-05-19T09:10:32;98754.84;;;15.82;51.78
70445;BME280;57902;49.638;11.070;2023-05-19T09:13:13;98755.47;;;15.67;51.61
70445;BME280;57902;49.638;11.070;2023-05-19T09:15:58;98747.03;;;15.82;50.60
70445;BME280;57902;49.638;11.070;2023-05-19T09:19:21;98754.19;;;15.98;49.23
70445;BME280;57902;49.638;11.070;2023-05-19T09:22:18;98752.72;;;16.11;49.98
70445;BME280;57902;49.638;11.070;2023-05-19T09:25:33;98747.50;;;16.11;49.88
70445;BME280;57902;49.638;11.070;2023-05-19T09:28:42;98746.88;;;16.25;49.19
70445;BME280;57902;49.638;11.070;2023-05-19T09:31:55;98737.41;;;16.24;48.52
70445;BME280;57902;49.638;11.070;2023-05-19T09:34:41;98743.94;;;16.52;48.36
70445;BME280;57902;49.638;11.070;2023-05-19T09:37:31;98744.53;;;16.76;46.56
70445;BME280;57902;49.638;11.070;2023-05-19T09:40:25;98740.72;;;17.02;46.96
70445;BME280;57902;49.638;11.070;2023-05-19T09:43:26;98724.53;;;16.95;46.19
70445;BME280;57902;49.638;11.070;2023-05-19T09:46:16;98736.50;;;17.17;46.35
70445;BME280;57902;49.638;11.070;2023-05-19T09:48:58;98737.88;;;17.42;46.37
70445;BME280;57902;49.638;11.070;2023-05-19T09:51:40;98743.84;;;17.26;46.10
70445;BME280;57902;49.638;11.070;2023-05-19T09:54:30;98737.66;;;17.46;44.01
70445;BME280;57902;49.638;11.070;2023-05-19T09:57:24;98739.59;;;17.43;45.27
70445;BME280;57902;49.638;11.070;2023-05-19T09:59:59;98736.81;;;17.28;46.44
70445;BME280;57902;49.638;11.070;2023-05-19T10:02:48;98730.38;;;17.18;44.86
70445;BME280;57902;49.638;11.070;2023-05-19T10:05:17;98732.13;;;17.35;45.09
70445;BME280;57902;49.638;11.070;2023-05-19T10:07:50;98731.84;;;17.41;44.93
70445;BME280;57902;49.638;11.070;2023-05-19T10:10:17;98732.13;;;17.35;45.38
70445;BME280;57902;49.638;11.070;2023-05-19T10:12:48;98726.56;;;17.25;45.15
70445;BME280;57902;49.638;11.070;2023-05-19T10:15:18;98725.09;;;17.20;45.06
70445;BME280;57902;49.638;11.070;2023-05-19T10:17:48;98722.56;;;17.18;46.88
70445;BME280;57902;49.638;11.070;2023-05-19T10:20:21;98706.00;;;17.37;45.49
70445;BME280;57902;49.638;11.070;2023-05-19T10:22:47;98719.16;;;17.51;45.80
70445;BME280;57902;49.638;11.070;2023-05-19T10:25:14;98708.75;;;17.34;46.21
70445;BME280;57902;49.638;11.070;2023-05-19T10:27:50;98692.50;;;17.63;44.65
70445;BME280;57902;49.638;11.070;2023-05-19T10:30:37;98698.00;;;17.57;45.97
70445;BME280;57902;49.638;11.070;2023-05-19T10:33:06;98700.78;;;17.37;45.89
70445;BME280;57902;49.638;11.070;2023-05-19T10:35:58;98705.16;;;17.87;44.85
70445;BME280;57902;49.638;11.070;2023-05-19T10:39:00;98696.53;;;18.02;43.26
70445;BME280;57902;49.638;11.070;2023-05-19T10:47:12;98670.63;;;18.31;45.35
70445;BME280;57902;49.638;11.070;2023-05-19T10:49:39;98667.59;;;18.39;43.07
70445;BME280;57902;49.638;11.070;2023-05-19T10:52:19;98665.81;;;18.40;43.92
70445;BME280;57902;49.638;11.070;2023-05-19T10:54:47;98674.69;;;18.37;43.05
70445;BME280;57902;49.638;11.070;2023-05-19T10:57:19;98677.28;;;18.21;43.75
70445;BME280;57902;49.638;11.070;2023-05-19T10:59:46;98669.19;;;18.42;43.22
70445;BME280;57902;49.638;11.070;2023-05-19T11:02:40;98663.25;;;18.24;43.84
70445;BME280;57902;49.638;11.070;2023-05-19T11:05:14;98668.63;;;18.21;45.14
70445;BME280;57902;49.638;11.070;2023-05-19T11:07:53;98673.81;;;18.36;42.54
70445;BME280;57902;49.638;11.070;2023-05-19T11:10:22;98667.38;;;18.12;44.36
70445;BME280;57902;49.638;11.070;2023-05-19T11:12:49;98673.50;;;18.27;43.18
70445;BME280;57902;49.638;11.070;2023-05-19T11:15:17;98667.69;;;18.38;43.20
70445;BME280;57902;49.638;11.070;2023-05-19T11:17:47;98664.63;;;18.29;43.46
70445;BME280;57902;49.638;11.070;2023-05-19T11:20:25;98668.28;;;18.27;43.92
70445;BME280;57902;49.638;11.070;2023-05-19T11:25:43;98661.19;;;18.61;42.42
70445;BME280;57902;49.638;11.070;2023-05-19T11:28:10;98659.72;;;18.71;42.70
70445;BME280;57902;49.638;11.070;2023-05-19T11:30:40;98657.59;;;18.78;42.92
70445;BME280;57902;49.638;11.070;2023-05-19T11:33:09;98657.78;;;18.75;42.87
70445;BME280;57902;49.638;11.070;2023-05-19T11:35:42;98662.34;;;18.87;42.45
70445;BME280;57902;49.638;11.070;2023-05-19T11:38:09;98646.41;;;18.76;42.89
70445;BME280;57902;49.638;11.070;2023-05-19T11:40:37;98650.78;;;18.75;42.50
70445;BME280;57902;49.638;11.070;2023-05-19T11:43:03;98650.47;;;18.65;42.71
70445;BME280;57902;49.638;11.070;2023-05-19T11:45:36;98650.44;;;18.81;42.39
70445;BME280;57902;49.638;11.070;2023-05-19T11:48:03;98650.94;;;18.88;43.43
70445;BME280;57902;49.638;11.070;2023-05-19T11:50:31;98654.06;;;18.79;42.11
70445;BME280;57902;49.638;11.070;2023-05-19T11:53:00;98643.97;;;18.73;42.07
70445;BME280;57902;49.638;11.070;2023-05-19T11:55:29;98648.38;;;18.72;44.42
70445;BME280;57902;49.638;11.070;2023-05-19T11:57:59;98635.22;;;18.74;42.34
70445;BME280;57902;49.638;11.070;2023-05-19T12:00:35;98641.72;;;18.97;41.83
70445;BME280;57902;49.638;11.070;2023-05-19T12:03:10;98636.81;;;19.06;42.87
70445;BME280;57902;49.638;11.070;2023-05-19T12:05:42;98633.13;;;19.25;44.50
70445;BME280;57902;49.638;11.070;2023-05-19T12:08:11;98623.22;;;19.30;42.20
70445;BME280;57902;49.638;11.070;2023-05-19T12:10:38;98624.44;;;19.53;41.54
70445;BME280;57902;49.638;11.070;2023-05-19T12:13:06;98616.03;;;19.77;42.52
70445;BME280;57902;49.638;11.070;2023-05-19T12:15:36;98613.13;;;19.96;43.10
70445;BME280;57902;49.638;11.070;2023-05-19T12:18:03;98628.22;;;20.20;40.58
70445;BME280;57902;49.638;11.070;2023-05-19T12:20:33;98620.06;;;20.24;40.35
70445;BME280;57902;49.638;11.070;2023-05-19T12:23:03;98615.81;;;20.36;37.64
70445;BME280;57902;49.638;11.070;2023-05-19T12:25:30;98608.56;;;20.00;38.69
70445;BME280;57902;49.638;11.070;2023-05-19T12:27:59;98606.84;;;20.13;39.03
70445;BME280;57902;49.638;11.070;2023-05-19T12:30:29;98603.25;;;19.87;39.54
70445;BME280;57902;49.638;11.070;2023-05-19T12:32:57;98594.94;;;19.80;41.29
70445;BME280;57902;49.638;11.070;2023-05-19T12:35:30;98590.66;;;19.79;40.72
70445;BME280;57902;49.638;11.070;2023-05-19T12:38:06;98596.31;;;19.71;40.88
70445;BME280;57902;49.638;11.070;2023-05-19T12:40:42;98604.63;;;19.35;40.52
70445;BME280;57902;49.638;11.070;2023-05-19T12:43:22;98600.06;;;19.38;41.34
70445;BME280;57902;49.638;11.070;2023-05-19T12:45:49;98594.28;;;19.48;40.29
70445;BME280;57902;49.638;11.070;2023-05-19T12:48:16;98587.00;;;19.53;39.62
70445;BME280;57902;49.638;11.070;2023-05-19T12:50:47;98584.78;;;19.32;39.85
70445;BME280;57902;49.638;11.070;2023-05-19T12:53:21;98591.28;;;19.54;40.99
70445;BME280;57902;49.638;11.070;2023-05-19T12:55:50;98591.19;;;19.84;39.50
70445;BME280;57902;49.638;11.070;2023-05-19T12:58:32;98589.56;;;19.96;40.16
70445;BME280;57902;49.638;11.070;2023-05-19T13:01:05;98584.34;;;19.96;39.37
70445;BME280;57902;49.638;11.070;2023-05-19T13:03:41;98576.25;;;20.14;38.82
70445;BME280;57902;49.638;11.070;2023-05-19T13:06:23;98573.53;;;20.15;38.76
70445;BME280;57902;49.638;11.070;2023-05-19T13:08:53;98574.78;;;20.09;39.38
70445;BME280;57902;49.638;11.070;2023-05-19T13:11:20;98569.53;;;20.37;38.86
70445;BME280;57902;49.638;11.070;2023-05-19T13:13:51;98577.59;;;20.34;38.54
70445;BME280;57902;49.638;11.070;2023-05-19T13:16:18;98577.34;;;20.24;39.17
70445;BME280;57902;49.638;11.070;2023-05-19T13:18:45;98570.66;;;20.33;39.12
70445;BME280;57902;49.638;11.070;2023-05-19T13:21:14;98566.22;;;20.48;37.70
70445;BME280;57902;49.638;11.070;2023-05-19T13:23:43;98550.84;;;20.56;37.43
70445;BME280;57902;49.638;11.070;2023-05-19T13:26:12;98566.69;;;20.67;38.87
70445;BME280;57902;49.638;11.070;2023-05-19T13:28:39;98559.00;;;20.64;37.71
70445;BME280;57902;49.638;11.070;2023-05-19T13:31:07;98559.84;;;20.52;37.65
70445;BME280;57902;49.638;11.070;2023-05-19T13:33:34;98573.16;;;20.61;36.95
70445;BME280;57902;49.638;11.070;2023-05-19T13:36:04;98573.09;;;20.76;36.79
70445;BME280;57902;49.638;11.070;2023-05-19T13:42:10;98558.16;;;20.51;37.66
70445;BME280;57902;49.638;11.070;2023-05-19T13:44:48;98553.25;;;20.59;37.91
70445;BME280;57902;49.638;11.070;2023-05-19T13:47:15;98545.13;;;20.76;37.06
70445;BME280;57902;49.638;11.070;2023-05-19T13:49:42;98541.16;;;20.84;36.83
70445;BME280;57902;49.638;11.070;2023-05-19T13:52:11;98556.56;;;20.88;37.44
70445;BME280;57902;49.638;11.070;2023-05-19T13:54:38;98548.19;;;21.22;37.77
70445;BME280;57902;49.638;11.070;2023-05-19T13:57:05;98556.66;;;21.12;36.32
70445;BME280;57902;49.638;11.070;2023-05-19T13:59:32;98545.25;;;21.13;36.86
70445;BME280;57902;49.638;11.070;2023-05-19T14:02:00;98546.28;;;21.24;35.54
70445;BME280;57902;49.638;11.070;2023-05-19T14:04:30;98542.50;;;21.15;35.31
70445;BME280;57902;49.638;11.070;2023-05-19T14:07:05;98540.94;;;21.12;36.67
70445;BME280;57902;49.638;11.070;2023-05-19T14:09:32;98544.50;;;20.86;37.35
70445;BME280;57902;49.638;11.070;2023-05-19T14:11:59;98547.75;;;20.76;37.81
70445;BME280;57902;49.638;11.070;2023-05-19T14:14:26;98547.53;;;20.79;36.83
70445;BME280;57902;49.638;11.070;2023-05-19T14:16:53;98549.16;;;20.55;36.57
70445;BME280;57902;49.638;11.070;2023-05-19T14:19:27;98547.66;;;20.51;37.27
70445;BME280;57902;49.638;11.070;2023-05-19T14:22:03;98556.50;;;20.22;38.88
70445;BME280;57902;49.638;11.070;2023-05-19T14:24:30;98543.81;;;20.16;38.52
70445;BME280;57902;49.638;11.070;2023-05-19T14:30:44;98542.69;;;19.93;38.53
70445;BME280;57902;49.638;11.070;2023-05-19T14:34:06;98538.47;;;19.90;39.00
70445;BME280;57902;49.638;11.070;2023-05-19T14:37:05;98532.91;;;19.82;39.48
70445;BME280;57902;49.638;11.070;2023-05-19T14:39:55;98525.84;;;19.97;39.06
70445;BME280;57902;49.638;11.070;2023-05-19T14:43:10;98531.28;;;19.94;38.76
70445;BME280;57902;49.638;11.070;2023-05-19T14:46:03;98528.59;;;19.81;39.01
70445;BME280;57902;49.638;11.070;2023-05-19T14:48:50;98530.50;;;19.65;39.70
70445;BME280;57902;49.638;11.070;2023-05-19T14:51:17;98530.94;;;19.57;41.75
70445;BME280;57902;49.638;11.070;2023-05-19T14:53:44;98532.81;;;19.69;40.44
70445;BME280;57902;49.638;11.070;2023-05-19T14:56:11;98527.97;;;19.63;40.51
70445;BME280;57902;49.638;11.070;2023-05-19T14:58:37;98529.34;;;19.69;40.09
70445;BME280;57902;49.638;11.070;2023-05-19T15:01:06;98531.13;;;19.68;40.89
70445;BME280;57902;49.638;11.070;2023-05-19T15:03:33;98533.94;;;19.80;40.54
70445;BME280;57902;49.638;11.070;2023-05-19T15:06:02;98531.69;;;19.73;40.68
70445;BME280;57902;49.638;11.070;2023-05-19T15:08:29;98528.31;;;19.71;40.86
70445;BME280;57902;49.638;11.070;2023-05-19T15:10:56;98521.44;;;19.56;41.44
70445;BME280;57902;49.638;11.070;2023-05-19T15:13:22;98520.31;;;19.60;42.01
70445;BME280;57902;49.638;11.070;2023-05-19T15:15:52;98522.25;;;19.71;41.79
70445;BME280;57902;49.638;11.070;2023-05-19T15:18:40;98533.94;;;19.80;42.21
70445;BME280;57902;49.638;11.070;2023-05-19T15:21:07;98533.09;;;19.65;41.99
70445;BME280;57902;49.638;11.070;2023-05-19T15:23:37;98530.22;;;19.55;42.26
70445;BME280;57902;49.638;11.070;2023-05-19T15:26:04;98525.75;;;19.43;42.58
70445;BME280;57902;49.638;11.070;2023-05-19T15:28:34;98529.22;;;19.43;43.07
70445;BME280;57902;49.638;11.070;2023-05-19T15:31:01;98527.28;;;19.32;43.00
70445;BME280;57902;49.638;11.070;2023-05-19T15:33:30;98530.41;;;19.37;43.05
70445;BME280;57902;49.638;11.070;2023-05-19T15:35:59;98529.13;;;19.30;42.81
70445;BME280;57902;49.638;11.070;2023-05-19T15:38:26;98528.66;;;19.23;43.48
70445;BME280;57902;49.638;11.070;2023-05-19T15:40:58;98532.13;;;19.24;43.83
70445;BME280;57902;49.638;11.070;2023-05-19T15:44:18;98534.91;;;19.06;43.90
70445;BME280;57902;49.638;11.070;2023-05-19T15:47:13;98535.50;;;19.12;44.11
70445;BME280;57902;49.638;11.070;2023-05-19T15:49:40;98541.34;;;19.15;43.91
70445;BME280;57902;49.638;11.070;2023-05-19T15:52:08;98541.44;;;19.28;43.93
70445;BME280;57902;49.638;11.070;2023-05-19T15:54:34;98533.31;;;19.18;44.84
70445;BME280;57902;49.638;11.070;2023-05-19T15:57:06;98524.47;;;19.21;44.88
70445;BME280;57902;49.638;11.070;2023-05-19T15:59:33;98523.88;;;19.30;45.51
70445;BME280;57902;49.638;11.070;2023-05-19T16:02:00;98522.19;;;19.29;45.34
70445;BME280;57902;49.638;11.070;2023-05-19T16:04:27;98520.34;;;19.31;45.68
70445;BME280;57902;49.638;11.070;2023-05-19T16:06:53;98533.97;;;19.36;45.85
70445;BME280;57902;49.638;11.070;2023-05-19T16:09:20;98524.81;;;19.29;44.85
70445;BME280;57902;49.638;11.070;2023-05-19T16:11:55;98521.75;;;19.22;44.91
70445;BME280;57902;49.638;11.070;2023-05-19T16:14:32;98532.19;;;19.08;45.44
70445;BME280;57902;49.638;11.070;2023-05-19T16:17:02;98530.97;;;18.99;44.78
70445;BME280;57902;49.638;11.070;2023-05-19T16:19:30;98524.97;;;18.83;45.13
70445;BME280;57902;49.638;11.070;2023-05-19T16:21:58;98522.75;;;18.77;46.07
70445;BME280;57902;49.638;11.070;2023-05-19T16:24:25;98509.78;;;18.75;46.64
70445;BME280;57902;49.638;11.070;2023-05-19T16:26:51;98515.97;;;18.58;46.96
70445;BME280;57902;49.638;11.070;2023-05-19T16:29:22;98516.41;;;18.81;45.71